This is the latest recevied weather packets stored in our database for station/object SM6KNE. If no packets are shown the sender has not sent any weather packets the latest 10 day(s).
| Time | Temp. | Humidity | Pressure | Rain* | Wind** | Luminosity | Snow |
|---|---|---|---|---|---|---|---|
| 1778039724 | -2.22° C | 65% | 1013.1 hPa | 0 mm | - | - | - |
| 1778039124 | -2.22° C | 65% | 1013.1 hPa | 0 mm | - | - | - |
| 1778037323 | -2.22° C | 65% | 1013.1 hPa | 0 mm | - | - | - |
| 1778034324 | -2.22° C | 64% | 1013.1 hPa | 0 mm | - | - | - |
| 1778032521 | -1.67° C | 63% | 1013.1 hPa | 0 mm | - | - | - |
| 1778031344 | -1.67° C | 63% | 1013.1 hPa | 0 mm | - | - | - |
| 1778026524 | -0.56° C | 60% | 1013.1 hPa | 0 mm | - | - | - |
| 1778024121 | -0.56° C | 58% | 1013.1 hPa | 0 mm | - | - | - |
| 1778021724 | 0.56° C | 57% | 1013.1 hPa | 0 mm | - | - | - |
| 1778021123 | 0.56° C | 56% | 1013.1 hPa | 0 mm | - | - | - |
| 1778009124 | 6.67° C | 37% | 1012.1 hPa | 0 mm | - | - | - |
| 1778004344 | 10.56° C | 30% | 1012.1 hPa | 0 mm | - | - | - |
| 1777998325 | 17.78° C | 20% | 1012.1 hPa | 0 mm | - | - | - |
| 1777993524 | 18.89° C | 23% | 1012.1 hPa | 0 mm | - | - | - |
| 1777991744 | 18.33° C | 25% | 1011.1 hPa | 0 mm | - | - | - |
| 1777989344 | 20° C | 23% | 1011.1 hPa | 0 mm | - | - | - |
| 1777986924 | 19.44° C | 24% | 1011.1 hPa | 0 mm | - | - | - |
| 1777982724 | 18.33° C | 27% | 1011.1 hPa | - | - | - | - |
| 1777982127 | 18.33° C | 28% | 1011.1 hPa | - | - | - | - |
| 1777981523 | 18.33° C | 29% | 1011.1 hPa | - | - | - | - |
| 1777980924 | 17.22° C | 31% | 1011.1 hPa | - | - | - | - |
| 1777977924 | 16.11° C | 32% | 1011.1 hPa | - | - | - | - |
| 1777970744 | 11.11° C | 41% | 1011.1 hPa | - | - | - | - |
| 1777966524 | 8.89° C | 49% | 1011.1 hPa | - | - | - | - |
| 1777962920 | 6.67° C | 53% | 1011.1 hPa | - | - | - | - |
* Rain latest 24 hours (hover to see other rain measurements)
** Current wind speed in m/s (hover to see current wind gust speed)